createdAt,value
2023-02-14T00:00:53.149Z,7.80
2023-02-14T00:03:20.702Z,7.87
2023-02-14T00:05:48.196Z,7.73
2023-02-14T00:08:16.361Z,7.70
2023-02-14T00:10:43.877Z,8.10
2023-02-14T00:13:11.455Z,7.50
2023-02-14T00:15:38.968Z,8.43
2023-02-14T00:18:06.610Z,8.13
2023-02-14T00:20:34.105Z,9.03
2023-02-14T00:23:01.644Z,7.80
2023-02-14T00:25:29.181Z,8.17
2023-02-14T00:27:56.772Z,8.33
2023-02-14T00:30:24.463Z,7.73
2023-02-14T00:32:52.140Z,8.50
2023-02-14T00:35:19.714Z,8.83
2023-02-14T00:37:47.285Z,8.13
2023-02-14T00:40:15.763Z,8.10
2023-02-14T00:42:43.478Z,8.17
2023-02-14T00:45:11.109Z,9.60
2023-02-14T00:47:38.674Z,7.77
2023-02-14T00:50:06.484Z,7.43
2023-02-14T00:52:34.106Z,7.60
2023-02-14T00:55:01.632Z,8.13
2023-02-14T00:57:29.242Z,8.77
2023-02-14T00:59:56.811Z,8.50
2023-02-14T01:02:24.421Z,8.17
2023-02-14T01:04:51.980Z,8.33
2023-02-14T01:07:19.645Z,7.33
2023-02-14T01:09:47.209Z,7.83
2023-02-14T01:12:14.972Z,7.93
2023-02-14T01:14:42.548Z,8.33
2023-02-14T01:17:10.090Z,7.43
2023-02-14T01:19:37.638Z,7.77
2023-02-14T01:22:05.238Z,8.03
2023-02-14T01:24:32.750Z,8.23
2023-02-14T01:27:00.362Z,7.73
2023-02-14T01:29:27.970Z,8.63
2023-02-14T01:31:55.629Z,7.03
2023-02-14T01:34:23.239Z,7.60
2023-02-14T01:36:50.830Z,7.40
2023-02-14T01:39:18.379Z,8.27
2023-02-14T01:41:47.248Z,6.50
2023-02-14T01:44:14.718Z,6.90
2023-02-14T01:46:43.682Z,7.27
2023-02-14T01:49:14.268Z,7.20
2023-02-14T01:51:44.571Z,7.00
2023-02-14T01:54:12.804Z,7.13
2023-02-14T01:56:44.337Z,7.40
2023-02-14T01:59:13.474Z,6.80
2023-02-14T02:01:41.568Z,6.90
2023-02-14T02:04:18.392Z,8.03
2023-02-14T02:06:48.159Z,7.27
2023-02-14T02:09:21.815Z,7.73
2023-02-14T02:11:49.513Z,7.60
2023-02-14T02:14:21.142Z,7.47
2023-02-14T02:17:07.411Z,7.70
2023-02-14T02:19:55.208Z,8.13
2023-02-14T02:22:41.325Z,7.80
2023-02-14T02:25:21.600Z,7.40
2023-02-14T02:28:03.518Z,7.90
2023-02-14T02:30:46.169Z,8.43
2023-02-14T02:33:29.004Z,7.67
2023-02-14T02:35:56.590Z,8.30
2023-02-14T02:38:43.027Z,7.57
2023-02-14T02:41:16.735Z,8.03
2023-02-14T02:44:16.838Z,8.60
2023-02-14T02:46:49.236Z,8.27
2023-02-14T02:49:25.831Z,8.70
2023-02-14T02:51:56.110Z,8.60
2023-02-14T02:54:30.587Z,9.00
2023-02-14T02:57:00.300Z,9.40
2023-02-14T02:59:30.403Z,9.67
2023-02-14T03:02:10.172Z,8.73
2023-02-14T03:04:40.363Z,9.00
2023-02-14T03:07:08.494Z,9.40
2023-02-14T03:09:35.961Z,9.10
2023-02-14T03:12:18.609Z,8.77
2023-02-14T03:15:04.788Z,8.40
2023-02-14T03:17:37.349Z,9.27
2023-02-14T03:20:04.916Z,8.37
2023-02-14T03:22:42.106Z,8.53
2023-02-14T03:25:32.428Z,8.77
2023-02-14T03:28:03.533Z,9.00
2023-02-14T03:30:37.206Z,8.97
2023-02-14T03:33:07.061Z,8.57
2023-02-14T03:35:37.606Z,9.10
2023-02-14T03:38:10.536Z,9.40
2023-02-14T03:40:46.781Z,8.80
2023-02-14T03:43:19.841Z,8.40
2023-02-14T03:45:50.003Z,8.10
2023-02-14T03:48:20.224Z,9.07
2023-02-14T03:50:49.599Z,8.77
2023-02-14T03:53:19.553Z,7.97
2023-02-14T03:55:55.012Z,8.17
2023-02-14T03:58:28.883Z,8.33
2023-02-14T04:00:59.806Z,9.23
2023-02-14T04:03:29.158Z,8.63
2023-02-14T04:05:56.883Z,8.57
2023-02-14T04:08:25.883Z,8.47
2023-02-14T04:10:53.846Z,9.20
2023-02-14T04:13:21.682Z,8.73
2023-02-14T04:15:49.269Z,7.77
2023-02-14T04:18:16.872Z,8.83
2023-02-14T04:20:44.385Z,8.53
2023-02-14T04:23:12.009Z,8.87
2023-02-14T04:25:39.519Z,8.97
2023-02-14T04:28:07.060Z,9.57
2023-02-14T04:30:34.624Z,9.70
2023-02-14T04:33:02.232Z,9.77
2023-02-14T04:35:29.705Z,10.30
2023-02-14T04:37:57.318Z,10.00
2023-02-14T04:40:24.850Z,10.03
2023-02-14T04:42:52.440Z,10.13
2023-02-14T04:45:20.160Z,9.73
2023-02-14T04:47:47.746Z,9.00
2023-02-14T04:50:15.431Z,9.57
2023-02-14T04:52:42.993Z,9.47
2023-02-14T04:55:10.575Z,9.43
2023-02-14T04:57:38.126Z,9.30
2023-02-14T05:00:05.933Z,9.20
2023-02-14T05:02:33.597Z,10.10
2023-02-14T05:05:01.196Z,9.90
2023-02-14T05:07:28.894Z,9.30
2023-02-14T05:09:56.402Z,11.37
2023-02-14T05:12:24.100Z,13.03
2023-02-14T05:14:51.616Z,11.80
2023-02-14T05:17:19.440Z,11.70
2023-02-14T05:19:46.953Z,10.97
2023-02-14T05:22:15.827Z,10.10
2023-02-14T05:24:44.333Z,11.03
2023-02-14T05:27:11.931Z,11.43
2023-02-14T05:29:39.469Z,11.03
2023-02-14T05:32:07.091Z,12.67
2023-02-14T05:34:34.802Z,12.13
2023-02-14T05:37:02.379Z,11.97
2023-02-14T05:39:30.182Z,12.60
2023-02-14T05:41:59.342Z,13.20
2023-02-14T05:44:26.993Z,13.10
2023-02-14T05:46:54.563Z,13.67
2023-02-14T05:49:22.200Z,12.43
2023-02-14T05:51:50.319Z,14.20
2023-02-14T05:54:17.852Z,13.97
2023-02-14T05:56:45.421Z,13.60
2023-02-14T05:59:12.977Z,13.20
2023-02-14T06:01:40.578Z,14.07
2023-02-14T06:04:08.182Z,14.47
2023-02-14T06:06:36.822Z,14.07
2023-02-14T06:09:04.554Z,13.63
2023-02-14T06:11:32.120Z,14.10
2023-02-14T06:13:59.606Z,15.40
2023-02-14T06:16:27.160Z,14.67
2023-02-14T06:18:54.757Z,14.73
2023-02-14T06:21:22.528Z,14.80
2023-02-14T06:23:50.090Z,14.57
2023-02-14T06:26:17.661Z,13.40
2023-02-14T06:28:45.223Z,14.83
2023-02-14T06:31:18.995Z,15.33
2023-02-14T06:33:46.637Z,15.47
2023-02-14T06:36:14.210Z,15.27
2023-02-14T06:38:41.944Z,14.60
2023-02-14T06:41:10.680Z,15.20
2023-02-14T06:43:38.356Z,13.63
2023-02-14T06:46:06.099Z,14.93
2023-02-14T06:48:33.685Z,15.27
2023-02-14T06:51:01.415Z,16.33
2023-02-14T06:53:29.338Z,16.43
2023-02-14T06:55:56.864Z,15.53
2023-02-14T06:58:24.369Z,16.57
2023-02-14T07:00:51.872Z,16.87
2023-02-14T07:03:19.429Z,15.13
2023-02-14T07:05:46.947Z,16.63
2023-02-14T07:08:14.525Z,16.83
2023-02-14T07:10:42.095Z,15.37
2023-02-14T07:13:09.671Z,15.33
2023-02-14T07:15:37.192Z,15.93
2023-02-14T07:18:04.851Z,15.93
2023-02-14T07:20:32.384Z,16.87
2023-02-14T07:22:59.891Z,17.00
2023-02-14T07:25:27.534Z,16.77
2023-02-14T07:27:55.171Z,17.17
2023-02-14T07:30:22.801Z,17.93
2023-02-14T07:32:50.361Z,17.37
2023-02-14T07:35:17.925Z,19.00
2023-02-14T07:37:45.445Z,17.77
2023-02-14T07:40:15.300Z,17.57
2023-02-14T07:42:43.707Z,16.77
2023-02-14T07:45:21.314Z,19.20
2023-02-14T07:47:51.009Z,23.42
2023-02-14T07:50:18.672Z,19.30
2023-02-14T07:52:46.383Z,17.87
2023-02-14T07:55:14.166Z,19.30
2023-02-14T07:57:41.762Z,18.70
2023-02-14T08:00:09.823Z,19.17
2023-02-14T08:02:37.375Z,20.23
2023-02-14T08:05:05.058Z,18.43
2023-02-14T08:07:32.734Z,19.07
2023-02-14T08:10:00.234Z,19.07
2023-02-14T08:12:27.813Z,18.50
2023-02-14T08:14:55.360Z,19.57
2023-02-14T08:17:23.174Z,18.30
2023-02-14T08:19:50.669Z,18.57
2023-02-14T08:22:20.635Z,18.90
2023-02-14T08:24:48.172Z,18.57
2023-02-14T08:27:15.707Z,19.20
2023-02-14T08:29:43.350Z,18.77
2023-02-14T08:32:11.087Z,19.70
2023-02-14T08:34:38.743Z,18.33
2023-02-14T08:37:06.325Z,18.77
2023-02-14T08:39:34.094Z,17.57
2023-02-14T08:42:01.726Z,18.17
2023-02-14T08:44:29.325Z,19.50
2023-02-14T08:46:56.975Z,19.27
2023-02-14T08:49:24.679Z,18.63
2023-02-14T08:51:52.204Z,17.97
2023-02-14T08:54:19.779Z,19.13
2023-02-14T08:56:47.318Z,18.38
2023-02-14T08:59:14.986Z,19.50
2023-02-14T09:01:42.490Z,18.40
2023-02-14T09:04:10.206Z,17.50
2023-02-14T09:06:38.626Z,18.87
2023-02-14T09:09:06.771Z,16.83
2023-02-14T09:11:34.332Z,18.00
2023-02-14T09:14:01.916Z,17.40
2023-02-14T09:16:29.528Z,17.13
2023-02-14T09:18:57.207Z,17.27
2023-02-14T09:21:26.419Z,17.70
2023-02-14T09:23:53.997Z,17.17
2023-02-14T09:26:21.704Z,16.33
2023-02-14T09:28:49.515Z,17.03
2023-02-14T09:31:18.952Z,17.10
2023-02-14T09:33:47.756Z,17.13
2023-02-14T09:36:15.305Z,17.53
2023-02-14T09:38:43.142Z,17.10
2023-02-14T09:41:16.784Z,16.97
2023-02-14T09:43:56.704Z,16.07
2023-02-14T09:46:25.453Z,17.40
2023-02-14T09:48:54.018Z,17.07
2023-02-14T09:51:23.324Z,16.97
2023-02-14T09:53:52.567Z,16.20
2023-02-14T09:56:26.077Z,16.43
2023-02-14T09:58:59.528Z,16.20
2023-02-14T10:01:28.866Z,15.73
2023-02-14T10:04:03.767Z,16.13
2023-02-14T10:06:46.894Z,15.87
2023-02-14T10:09:33.992Z,16.33
2023-02-14T10:12:03.420Z,17.27
2023-02-14T10:14:32.688Z,16.43
2023-02-14T10:17:03.208Z,16.50
2023-02-14T10:19:34.643Z,16.47
2023-02-14T10:22:04.100Z,16.43
2023-02-14T10:24:42.748Z,17.30
2023-02-14T10:27:11.596Z,18.10
2023-02-14T10:29:39.240Z,15.63
2023-02-14T10:32:10.979Z,16.33
2023-02-14T10:34:48.822Z,16.87
2023-02-14T10:37:25.609Z,15.13
2023-02-14T10:39:59.078Z,16.60
2023-02-14T10:42:34.612Z,16.30
2023-02-14T10:45:20.850Z,16.90
2023-02-14T10:47:57.312Z,17.13
2023-02-14T10:50:24.912Z,15.97
2023-02-14T10:52:55.490Z,16.33
2023-02-14T10:55:38.749Z,15.63
2023-02-14T10:58:07.513Z,16.10
2023-02-14T11:00:38.474Z,16.37
2023-02-14T11:03:08.043Z,15.90
2023-02-14T11:05:37.377Z,15.67
2023-02-14T11:08:13.903Z,15.43
2023-02-14T11:10:41.537Z,14.63
2023-02-14T11:13:28.059Z,15.63
2023-02-14T11:15:59.317Z,15.77
2023-02-14T11:18:28.000Z,15.80
2023-02-14T11:21:06.762Z,15.10
2023-02-14T11:23:35.513Z,15.27
2023-02-14T11:26:04.946Z,15.30
2023-02-14T11:28:32.667Z,14.50
2023-02-14T11:31:00.907Z,15.90
2023-02-14T11:33:55.011Z,14.90
2023-02-14T11:36:23.318Z,15.33
2023-02-14T11:38:59.271Z,14.00
2023-02-14T11:41:26.852Z,15.20
2023-02-14T11:44:10.150Z,16.97
2023-02-14T11:46:44.323Z,15.43
2023-02-14T11:49:31.177Z,16.30
2023-02-14T11:52:00.447Z,15.57
2023-02-14T11:54:34.221Z,14.83
2023-02-14T11:57:17.868Z,16.13
2023-02-14T11:59:47.755Z,15.70
2023-02-14T12:02:21.723Z,15.80
2023-02-14T12:04:50.501Z,15.37
2023-02-14T12:07:20.075Z,14.63
2023-02-14T12:09:48.608Z,14.63
2023-02-14T12:12:20.713Z,15.67
2023-02-14T12:14:49.928Z,15.90
2023-02-14T12:17:23.250Z,14.70
2023-02-14T12:19:56.740Z,16.03
2023-02-14T12:22:29.827Z,15.80
2023-02-14T12:25:06.449Z,16.80
2023-02-14T12:27:44.174Z,18.13
2023-02-14T12:30:15.244Z,16.97
2023-02-14T12:32:50.030Z,16.07
2023-02-14T12:35:19.149Z,15.80
2023-02-14T12:37:48.783Z,15.67
2023-02-14T12:40:22.898Z,16.37
2023-02-14T12:42:50.427Z,18.77
2023-02-14T12:45:24.152Z,17.30
2023-02-14T12:47:51.650Z,15.93
2023-02-14T12:50:28.157Z,16.03
2023-02-14T12:53:14.485Z,16.27
2023-02-14T12:55:47.424Z,16.83
2023-02-14T12:58:29.950Z,17.33
2023-02-14T13:00:57.643Z,16.97
2023-02-14T13:03:43.904Z,17.53
2023-02-14T13:06:17.730Z,17.73
2023-02-14T13:08:51.868Z,16.87
2023-02-14T13:11:22.218Z,15.30
2023-02-14T13:14:02.274Z,17.33
2023-02-14T13:16:32.691Z,18.00
2023-02-14T13:19:12.601Z,17.17
2023-02-14T13:21:41.738Z,17.03
2023-02-14T13:24:28.268Z,16.83
2023-02-14T13:27:00.262Z,16.80
2023-02-14T13:29:29.177Z,16.47
2023-02-14T13:32:02.528Z,15.97
2023-02-14T13:34:39.536Z,16.37
2023-02-14T13:37:08.449Z,17.47
2023-02-14T13:39:38.751Z,17.17
2023-02-14T13:42:07.304Z,16.27
2023-02-14T13:44:48.254Z,16.97
2023-02-14T13:47:20.714Z,17.27
2023-02-14T13:49:50.045Z,16.67
2023-02-14T13:52:36.303Z,15.90
2023-02-14T13:55:06.822Z,16.07
2023-02-14T13:57:35.693Z,17.93
2023-02-14T14:00:18.652Z,17.23
2023-02-14T14:02:52.067Z,16.03
2023-02-14T14:05:39.873Z,16.93
2023-02-14T14:08:22.840Z,16.57
2023-02-14T14:10:54.408Z,17.43
2023-02-14T14:13:40.943Z,17.63
2023-02-14T14:16:20.911Z,16.20
2023-02-14T14:18:49.068Z,16.73
2023-02-14T14:21:36.863Z,16.63
2023-02-14T14:24:16.444Z,15.97
2023-02-14T14:26:48.265Z,16.00
2023-02-14T14:29:18.963Z,16.27
2023-02-14T14:31:47.124Z,17.10
2023-02-14T14:34:19.166Z,16.10
2023-02-14T14:36:47.107Z,17.37
2023-02-14T14:39:26.066Z,16.90
2023-02-14T14:41:53.734Z,16.80
2023-02-14T14:44:21.421Z,16.23
2023-02-14T14:46:49.424Z,17.20
2023-02-14T14:49:17.686Z,16.30
2023-02-14T14:51:46.065Z,16.37
2023-02-14T14:54:13.520Z,15.80
2023-02-14T14:56:50.297Z,15.90
2023-02-14T14:59:17.876Z,16.03
2023-02-14T15:01:45.732Z,16.00
2023-02-14T15:04:17.760Z,15.03
2023-02-14T15:06:46.110Z,14.43
2023-02-14T15:09:14.998Z,15.17
2023-02-14T15:11:43.737Z,13.53
2023-02-14T15:14:13.997Z,13.50
2023-02-14T15:16:45.489Z,14.47
2023-02-14T15:19:35.038Z,14.70
2023-02-14T15:22:03.175Z,13.70
2023-02-14T15:24:31.285Z,12.87
2023-02-14T15:26:58.892Z,13.43
2023-02-14T15:29:31.595Z,13.20
2023-02-14T15:32:02.848Z,14.07
2023-02-14T15:34:33.072Z,14.27
2023-02-14T15:37:01.093Z,15.27
2023-02-14T15:39:37.543Z,13.17
2023-02-14T15:42:06.177Z,14.23
2023-02-14T15:44:33.886Z,14.50
2023-02-14T15:47:02.892Z,14.10
2023-02-14T15:49:37.988Z,14.30
2023-02-14T15:52:06.827Z,15.17
2023-02-14T15:54:37.679Z,15.17
2023-02-14T15:57:07.132Z,14.60
2023-02-14T15:59:35.766Z,14.10
2023-02-14T16:02:23.668Z,15.23
2023-02-14T16:04:51.354Z,15.10
2023-02-14T16:07:24.229Z,15.57
2023-02-14T16:10:11.869Z,14.83
2023-02-14T16:12:40.460Z,15.47
2023-02-14T16:15:17.365Z,15.80
2023-02-14T16:17:45.228Z,14.63
2023-02-14T16:20:21.812Z,15.00
2023-02-14T16:22:49.789Z,14.93
2023-02-14T16:25:17.493Z,15.30
2023-02-14T16:27:45.096Z,16.53
2023-02-14T16:30:16.601Z,14.73
2023-02-14T16:32:44.574Z,15.50
2023-02-14T16:35:18.499Z,15.97
2023-02-14T16:37:46.952Z,14.73
2023-02-14T16:40:15.007Z,15.43
2023-02-14T16:42:42.976Z,14.27
2023-02-14T16:45:19.767Z,15.07
2023-02-14T16:47:47.956Z,15.00
2023-02-14T16:50:15.654Z,15.43
2023-02-14T16:52:43.914Z,15.13
2023-02-14T16:55:15.745Z,15.90
2023-02-14T16:57:45.189Z,15.80
2023-02-14T17:00:13.082Z,16.13
2023-02-14T17:02:42.584Z,15.93
2023-02-14T17:05:11.591Z,16.17
2023-02-14T17:07:39.888Z,15.27
2023-02-14T17:10:10.835Z,15.10
2023-02-14T17:12:40.793Z,16.97
2023-02-14T17:15:14.306Z,17.80
2023-02-14T17:17:42.136Z,15.57
2023-02-14T17:20:09.880Z,16.20
2023-02-14T17:22:37.808Z,15.37
2023-02-14T17:25:05.982Z,16.33
2023-02-14T17:27:33.557Z,16.83
2023-02-14T17:30:01.331Z,14.97
2023-02-14T17:32:28.938Z,16.50
2023-02-14T17:34:56.501Z,15.40
2023-02-14T17:37:24.111Z,16.47
2023-02-14T17:39:53.076Z,16.60
2023-02-14T17:42:20.605Z,17.03
2023-02-14T17:44:48.127Z,16.37
2023-02-14T17:47:15.727Z,16.80
2023-02-14T17:49:43.238Z,17.37
2023-02-14T17:52:10.841Z,16.23
2023-02-14T17:54:38.504Z,16.47
2023-02-14T17:57:06.136Z,16.53
2023-02-14T17:59:33.930Z,17.40
2023-02-14T18:02:01.825Z,17.37
2023-02-14T18:04:29.376Z,18.20
2023-02-14T18:06:56.945Z,18.47
2023-02-14T18:09:24.482Z,17.30
2023-02-14T18:11:52.299Z,15.57
2023-02-14T18:14:19.848Z,15.70
2023-02-14T18:16:47.504Z,16.03
2023-02-14T18:19:15.223Z,16.87
2023-02-14T18:21:44.289Z,16.17
2023-02-14T18:24:12.398Z,15.57
2023-02-14T18:26:41.203Z,16.27
2023-02-14T18:29:08.844Z,16.60
2023-02-14T18:31:37.914Z,15.40
2023-02-14T18:34:05.562Z,17.23
2023-02-14T18:36:33.821Z,17.37
2023-02-14T18:39:01.366Z,18.97
2023-02-14T18:41:29.568Z,18.33
2023-02-14T18:43:57.266Z,15.77
2023-02-14T18:46:26.355Z,18.60
2023-02-14T18:48:54.352Z,17.17
2023-02-14T18:51:23.361Z,16.63
2023-02-14T18:53:51.386Z,18.70
2023-02-14T18:56:20.703Z,17.77
2023-02-14T18:58:49.239Z,18.57
2023-02-14T19:01:21.531Z,18.07
2023-02-14T19:03:50.360Z,18.53
2023-02-14T19:06:18.237Z,17.27
2023-02-14T19:08:46.197Z,16.63
2023-02-14T19:11:15.044Z,15.77
2023-02-14T19:13:46.395Z,16.07
2023-02-14T19:16:15.160Z,14.57
2023-02-14T19:18:42.838Z,14.90
2023-02-14T19:21:20.640Z,15.07
2023-02-14T19:23:48.564Z,14.77
2023-02-14T19:26:17.377Z,14.33
2023-02-14T19:28:45.545Z,14.50
2023-02-14T19:31:13.126Z,15.37
2023-02-14T19:33:42.130Z,14.10
2023-02-14T19:36:10.542Z,15.63
2023-02-14T19:38:38.293Z,14.63
2023-02-14T19:41:05.980Z,14.50
2023-02-14T19:43:33.596Z,15.17
2023-02-14T19:46:04.125Z,15.27
2023-02-14T19:48:31.799Z,15.37
2023-02-14T19:50:59.697Z,13.93
2023-02-14T19:53:27.720Z,14.00
2023-02-14T19:55:55.247Z,14.57
2023-02-14T19:58:22.813Z,14.77
2023-02-14T20:00:59.194Z,16.13
2023-02-14T20:03:27.631Z,16.67
2023-02-14T20:05:55.139Z,16.23
2023-02-14T20:08:22.741Z,15.27
2023-02-14T20:10:50.332Z,15.77
2023-02-14T20:13:18.094Z,16.30
2023-02-14T20:15:45.616Z,16.60
2023-02-14T20:18:13.291Z,16.17
2023-02-14T20:20:45.975Z,15.67
2023-02-14T20:23:13.601Z,16.03
2023-02-14T20:25:41.116Z,16.53
2023-02-14T20:28:09.652Z,16.63
2023-02-14T20:30:39.510Z,15.83
2023-02-14T20:33:07.134Z,15.17
2023-02-14T20:35:34.715Z,15.73
2023-02-14T20:38:02.260Z,15.57
2023-02-14T20:40:29.786Z,15.83
2023-02-14T20:42:57.379Z,15.67
2023-02-14T20:45:24.924Z,16.00
2023-02-14T20:47:52.501Z,14.97
2023-02-14T20:50:20.004Z,16.00
2023-02-14T20:52:47.582Z,16.37
2023-02-14T20:55:15.089Z,16.53
2023-02-14T20:57:42.749Z,16.40
2023-02-14T21:00:10.465Z,16.33
2023-02-14T21:02:38.026Z,16.40
2023-02-14T21:05:05.665Z,17.50
2023-02-14T21:07:33.335Z,17.00
2023-02-14T21:10:00.879Z,17.43
2023-02-14T21:12:28.516Z,17.63
2023-02-14T21:14:56.108Z,17.30
2023-02-14T21:17:23.676Z,17.13
2023-02-14T21:19:51.238Z,15.47
2023-02-14T21:22:18.822Z,16.13
2023-02-14T21:24:46.394Z,16.60
2023-02-14T21:27:13.969Z,17.00
2023-02-14T21:29:41.498Z,15.60
2023-02-14T21:32:09.054Z,16.37
2023-02-14T21:34:36.651Z,17.30
2023-02-14T21:37:04.275Z,15.80
2023-02-14T21:39:32.836Z,15.73
2023-02-14T21:42:00.426Z,16.40
2023-02-14T21:44:27.933Z,16.47
2023-02-14T21:46:55.510Z,16.50
2023-02-14T21:49:22.995Z,15.37
2023-02-14T21:51:50.533Z,15.93
2023-02-14T21:54:18.122Z,17.30
2023-02-14T21:56:45.897Z,16.63
2023-02-14T21:59:13.417Z,15.33
2023-02-14T22:01:42.594Z,16.80
2023-02-14T22:04:11.626Z,17.53
2023-02-14T22:06:40.328Z,17.30
2023-02-14T22:09:07.955Z,17.40
2023-02-14T22:11:35.927Z,17.27
2023-02-14T22:14:03.542Z,17.40
2023-02-14T22:16:31.204Z,16.77
2023-02-14T22:18:58.729Z,16.53
2023-02-14T22:21:26.975Z,16.03
2023-02-14T22:23:55.569Z,16.77
2023-02-14T22:26:24.539Z,17.07
2023-02-14T22:28:53.053Z,17.67
2023-02-14T22:31:20.937Z,17.63
2023-02-14T22:33:49.242Z,16.67
2023-02-14T22:36:17.214Z,18.77
2023-02-14T22:38:45.013Z,18.27
2023-02-14T22:41:19.909Z,18.00
2023-02-14T22:43:47.760Z,18.30
2023-02-14T22:46:16.524Z,17.20
2023-02-14T22:48:44.893Z,18.13
2023-02-14T22:51:21.631Z,17.27
2023-02-14T22:53:49.627Z,17.23
2023-02-14T22:56:18.754Z,17.50
2023-02-14T22:58:46.374Z,19.23
2023-02-14T23:01:17.924Z,18.00
2023-02-14T23:03:47.392Z,16.33
2023-02-14T23:06:15.424Z,17.50
2023-02-14T23:08:43.849Z,18.27
2023-02-14T23:11:15.936Z,18.53
2023-02-14T23:13:43.579Z,18.67
2023-02-14T23:16:11.150Z,18.87
2023-02-14T23:18:38.746Z,18.00
2023-02-14T23:21:12.522Z,19.30
2023-02-14T23:23:40.088Z,17.83
2023-02-14T23:26:07.630Z,19.67
2023-02-14T23:28:35.303Z,18.43
2023-02-14T23:31:03.365Z,17.83
2023-02-14T23:33:30.919Z,18.43
2023-02-14T23:36:02.403Z,18.80
2023-02-14T23:38:30.168Z,19.40
2023-02-14T23:40:57.695Z,19.60
2023-02-14T23:43:25.240Z,17.97
2023-02-14T23:45:52.823Z,19.83
2023-02-14T23:48:20.411Z,19.03
2023-02-14T23:50:47.913Z,18.40
2023-02-14T23:53:15.460Z,20.07
2023-02-14T23:55:42.932Z,20.07
2023-02-14T23:58:10.511Z,18.13
